createdAt,value
2022-10-16T00:02:34.669Z,75.13
2022-10-16T00:05:44.793Z,75.20
2022-10-16T00:08:48.530Z,75.23
2022-10-16T00:11:51.542Z,75.21
2022-10-16T00:14:54.476Z,75.26
2022-10-16T00:17:57.360Z,75.25
2022-10-16T00:21:21.434Z,75.26
2022-10-16T00:24:24.302Z,75.28
2022-10-16T00:27:27.167Z,75.37
2022-10-16T00:30:30.181Z,75.38
2022-10-16T00:33:33.633Z,75.40
2022-10-16T00:36:36.480Z,75.40
2022-10-16T00:39:39.839Z,75.43
2022-10-16T00:42:42.636Z,75.48
2022-10-16T00:45:45.864Z,75.46
2022-10-16T00:48:53.789Z,75.46
2022-10-16T00:51:56.794Z,75.48
2022-10-16T00:55:00.975Z,75.46
2022-10-16T00:58:03.808Z,75.43
2022-10-16T01:01:06.869Z,75.42
2022-10-16T01:04:09.874Z,75.38
2022-10-16T01:07:25.806Z,75.37
2022-10-16T01:10:39.353Z,75.35
2022-10-16T01:13:47.045Z,75.34
2022-10-16T01:17:00.770Z,75.33
2022-10-16T01:20:19.273Z,75.30
2022-10-16T01:23:25.088Z,75.28
2022-10-16T01:27:04.923Z,75.29
2022-10-16T01:30:31.784Z,75.30
2022-10-16T01:33:45.725Z,75.29
2022-10-16T01:36:54.376Z,75.31
2022-10-16T01:40:01.381Z,75.30
2022-10-16T01:43:09.489Z,75.31
2022-10-16T01:46:17.021Z,75.30
2022-10-16T01:49:23.151Z,75.29
2022-10-16T01:52:29.361Z,75.32
2022-10-16T01:55:36.823Z,75.35
2022-10-16T01:58:47.357Z,75.35
2022-10-16T02:01:53.848Z,75.37
2022-10-16T02:05:04.365Z,75.41
2022-10-16T02:08:07.487Z,75.41
2022-10-16T02:11:10.524Z,75.43
2022-10-16T02:14:13.325Z,75.46
2022-10-16T02:17:18.472Z,75.47
2022-10-16T02:20:26.254Z,75.51
2022-10-16T02:23:47.160Z,75.55
2022-10-16T02:26:52.748Z,75.58
2022-10-16T02:30:12.716Z,75.60
2022-10-16T02:33:17.502Z,75.63
2022-10-16T02:36:20.633Z,75.61
2022-10-16T02:39:23.545Z,75.60
2022-10-16T02:42:37.381Z,75.62
2022-10-16T02:45:40.605Z,75.59
2022-10-16T02:48:43.458Z,75.58
2022-10-16T02:51:46.224Z,75.57
2022-10-16T02:54:49.047Z,75.56
2022-10-16T02:57:51.886Z,75.57
2022-10-16T03:00:56.289Z,75.58
2022-10-16T03:03:59.216Z,75.59
2022-10-16T03:07:02.061Z,75.58
2022-10-16T03:10:05.412Z,75.60
2022-10-16T03:13:08.225Z,75.63
2022-10-16T03:16:11.222Z,75.63
2022-10-16T03:19:14.098Z,75.66
2022-10-16T03:22:16.908Z,75.69
2022-10-16T03:25:19.814Z,75.72
2022-10-16T03:28:22.683Z,75.74
2022-10-16T03:31:25.470Z,75.74
2022-10-16T03:34:28.964Z,75.73
2022-10-16T03:37:31.800Z,75.75
2022-10-16T03:40:34.645Z,75.74
2022-10-16T03:43:37.476Z,75.72
2022-10-16T03:46:40.523Z,75.72
2022-10-16T03:49:43.377Z,75.73
2022-10-16T03:52:46.689Z,75.73
2022-10-16T03:55:49.541Z,75.76
2022-10-16T03:58:52.658Z,75.75
2022-10-16T04:01:55.817Z,75.77
2022-10-16T04:04:58.593Z,75.77
2022-10-16T04:08:01.447Z,75.83
2022-10-16T04:11:04.588Z,75.85
2022-10-16T04:14:07.438Z,75.84
2022-10-16T04:17:10.241Z,75.88
2022-10-16T04:20:13.082Z,75.93
2022-10-16T04:23:15.887Z,75.97
2022-10-16T04:26:18.889Z,75.97
2022-10-16T04:29:21.728Z,76.00
2022-10-16T04:32:24.584Z,75.99
2022-10-16T04:35:27.350Z,76.01
2022-10-16T04:38:30.977Z,76.07
2022-10-16T04:41:33.808Z,76.08
2022-10-16T04:44:36.593Z,76.08
2022-10-16T04:47:39.375Z,76.11
2022-10-16T04:50:42.636Z,76.14
2022-10-16T04:53:45.717Z,76.08
2022-10-16T04:56:48.964Z,76.06
2022-10-16T04:59:51.897Z,76.03
2022-10-16T05:02:54.789Z,76.04
2022-10-16T05:05:57.758Z,76.05
2022-10-16T05:09:00.766Z,76.03
2022-10-16T05:12:04.570Z,76.04
2022-10-16T05:15:07.947Z,76.10
2022-10-16T05:18:10.754Z,76.16
2022-10-16T05:21:13.575Z,76.24
2022-10-16T05:24:17.098Z,76.32
2022-10-16T05:27:20.180Z,76.41
2022-10-16T05:30:23.401Z,76.47
2022-10-16T05:33:27.091Z,76.53
2022-10-16T05:36:30.088Z,76.64
2022-10-16T05:39:32.968Z,76.67
2022-10-16T05:42:35.772Z,76.72
2022-10-16T05:45:38.652Z,76.72
2022-10-16T05:48:41.450Z,76.69
2022-10-16T05:51:44.249Z,76.64
2022-10-16T05:54:47.107Z,76.64
2022-10-16T05:57:49.970Z,76.67
2022-10-16T06:01:02.088Z,76.66
2022-10-16T06:04:05.355Z,76.63
2022-10-16T06:07:08.246Z,76.59
2022-10-16T06:10:11.077Z,76.56
2022-10-16T06:13:14.829Z,76.49
2022-10-16T06:16:18.340Z,76.43
2022-10-16T06:19:21.443Z,76.37
2022-10-16T06:22:24.182Z,76.34
2022-10-16T06:25:27.028Z,76.30
2022-10-16T06:28:29.850Z,76.27
2022-10-16T06:31:34.475Z,76.32
2022-10-16T06:34:38.509Z,76.21
2022-10-16T06:37:43.616Z,76.16
2022-10-16T06:40:46.719Z,76.10
2022-10-16T06:43:50.066Z,75.96
2022-10-16T06:46:53.831Z,75.94
2022-10-16T06:49:56.803Z,75.86
2022-10-16T06:52:59.582Z,75.68
2022-10-16T06:56:17.873Z,75.58
2022-10-16T06:59:21.173Z,75.40
2022-10-16T07:02:24.333Z,75.34
2022-10-16T07:05:27.449Z,75.30
2022-10-16T07:08:41.275Z,75.24
2022-10-16T07:11:44.562Z,75.22
2022-10-16T07:14:47.432Z,75.13
2022-10-16T07:17:51.137Z,75.13
2022-10-16T07:20:54.387Z,75.13
2022-10-16T07:24:00.197Z,75.20
2022-10-16T07:27:03.107Z,75.20
2022-10-16T07:30:09.128Z,75.16
2022-10-16T07:33:12.273Z,75.03
2022-10-16T07:36:19.110Z,74.89
2022-10-16T07:39:21.911Z,74.77
2022-10-16T07:42:24.996Z,74.76
2022-10-16T07:45:27.944Z,74.64
2022-10-16T07:48:33.344Z,74.55
2022-10-16T07:51:36.249Z,74.49
2022-10-16T07:54:39.170Z,74.48
2022-10-16T07:57:42.006Z,74.45
2022-10-16T08:00:44.925Z,74.56
2022-10-16T08:03:50.893Z,74.45
2022-10-16T08:06:55.351Z,74.45
2022-10-16T08:09:59.735Z,74.26
2022-10-16T08:13:02.667Z,74.06
2022-10-16T08:16:09.449Z,73.73
2022-10-16T08:19:12.265Z,73.57
2022-10-16T08:22:15.724Z,73.35
2022-10-16T08:25:18.663Z,73.07
2022-10-16T08:28:21.891Z,72.98
2022-10-16T08:31:27.333Z,72.73
2022-10-16T08:34:30.652Z,72.49
2022-10-16T08:37:34.058Z,72.39
2022-10-16T08:40:38.257Z,72.43
2022-10-16T08:44:02.881Z,72.37
2022-10-16T08:47:20.977Z,72.20
2022-10-16T08:50:28.958Z,72.36
2022-10-16T08:53:37.113Z,72.07
2022-10-16T08:56:40.087Z,72.05
2022-10-16T08:59:43.107Z,71.82
2022-10-16T09:03:11.916Z,71.67
2022-10-16T09:06:32.055Z,71.84
2022-10-16T09:09:53.557Z,71.57
2022-10-16T09:13:17.236Z,71.60
2022-10-16T09:16:36.914Z,71.57
2022-10-16T09:19:49.311Z,71.44
2022-10-16T09:23:14.720Z,71.09
2022-10-16T09:26:20.243Z,70.93
2022-10-16T09:29:26.319Z,70.64
2022-10-16T09:32:29.923Z,70.45
2022-10-16T09:35:45.603Z,70.41
2022-10-16T09:38:48.606Z,70.51
2022-10-16T09:41:52.288Z,70.44
2022-10-16T09:44:55.367Z,70.56
2022-10-16T09:47:58.358Z,70.53
2022-10-16T09:51:04.802Z,70.48
2022-10-16T09:54:10.659Z,70.58
2022-10-16T09:57:14.462Z,70.50
2022-10-16T10:00:18.985Z,70.44
2022-10-16T10:03:37.317Z,70.54
2022-10-16T10:06:56.315Z,70.48
2022-10-16T10:09:59.217Z,70.49
2022-10-16T10:13:02.308Z,70.46
2022-10-16T10:16:05.382Z,70.61
2022-10-16T10:19:17.386Z,70.77
2022-10-16T10:22:32.452Z,70.72
2022-10-16T10:25:59.267Z,70.64
2022-10-16T10:29:34.334Z,70.75
2022-10-16T10:32:49.150Z,70.77
2022-10-16T10:36:30.001Z,70.88
2022-10-16T10:39:59.821Z,70.69
2022-10-16T10:43:14.830Z,70.62
2022-10-16T10:46:35.694Z,70.58
2022-10-16T10:49:43.246Z,70.57
2022-10-16T10:53:20.001Z,70.57
2022-10-16T10:56:28.924Z,70.53
2022-10-16T11:00:13.897Z,70.41
2022-10-16T11:03:39.032Z,70.50
2022-10-16T11:06:49.681Z,70.45
2022-10-16T11:10:00.485Z,70.52
2022-10-16T11:13:21.363Z,70.51
2022-10-16T11:16:30.019Z,70.48
2022-10-16T11:19:50.357Z,70.31
2022-10-16T11:23:17.310Z,70.07
2022-10-16T11:26:34.072Z,70.01
2022-10-16T11:34:27.392Z,69.87
2022-10-16T11:37:42.192Z,69.78
2022-10-16T11:40:49.800Z,69.74
2022-10-16T11:44:17.031Z,69.78
2022-10-16T11:51:08.794Z,69.61
2022-10-16T11:54:44.435Z,69.93
2022-10-16T11:58:03.923Z,69.63
2022-10-16T12:01:09.656Z,69.48
2022-10-16T12:04:48.229Z,69.30
2022-10-16T12:08:03.271Z,69.17
2022-10-16T12:11:28.798Z,68.85
2022-10-16T12:15:11.259Z,68.47
2022-10-16T12:18:04.551Z,68.37
2022-10-16T12:21:08.521Z,68.08
2022-10-16T12:24:29.518Z,68.03
2022-10-16T12:27:33.985Z,67.91
2022-10-16T12:30:38.620Z,67.91
2022-10-16T12:33:52.828Z,67.97
2022-10-16T12:37:08.490Z,67.83
2022-10-16T12:40:24.362Z,67.89
2022-10-16T12:43:33.404Z,67.79
2022-10-16T12:46:40.572Z,67.82
2022-10-16T12:49:50.208Z,67.88
2022-10-16T12:52:53.542Z,68.04
2022-10-16T12:56:14.404Z,68.09
2022-10-16T12:59:39.468Z,68.01
2022-10-16T13:03:16.639Z,68.11
2022-10-16T13:06:35.377Z,68.29
2022-10-16T13:09:48.109Z,68.39
2022-10-16T13:13:25.589Z,68.31
2022-10-16T13:16:43.379Z,68.38
2022-10-16T13:20:20.280Z,68.39
2022-10-16T13:23:26.567Z,68.38
2022-10-16T13:26:44.252Z,68.34
2022-10-16T13:29:54.393Z,68.37
2022-10-16T13:33:07.742Z,68.49
2022-10-16T13:36:25.696Z,68.47
2022-10-16T13:39:31.653Z,68.61
2022-10-16T13:42:34.709Z,68.81
2022-10-16T13:45:37.609Z,68.96
2022-10-16T13:48:40.982Z,69.18
2022-10-16T13:51:56.049Z,69.09
2022-10-16T13:55:01.777Z,69.35
2022-10-16T13:58:10.509Z,69.34
2022-10-16T14:01:26.221Z,69.42
2022-10-16T14:04:35.206Z,69.58
2022-10-16T14:07:39.654Z,69.66
2022-10-16T14:10:43.588Z,69.57
2022-10-16T14:13:49.569Z,69.50
2022-10-16T14:16:52.461Z,69.50
2022-10-16T14:20:00.855Z,69.52
2022-10-16T14:23:31.452Z,69.43
2022-10-16T14:26:50.548Z,69.36
2022-10-16T14:30:13.582Z,69.22
2022-10-16T14:33:36.624Z,69.25
2022-10-16T14:36:42.139Z,69.07
2022-10-16T14:39:50.366Z,69.12
2022-10-16T14:42:54.156Z,69.04
2022-10-16T14:45:58.163Z,69.01
2022-10-16T14:49:06.185Z,68.84
2022-10-16T14:52:13.470Z,68.78
2022-10-16T14:55:16.720Z,68.77
2022-10-16T14:58:23.542Z,68.78
2022-10-16T15:01:27.007Z,68.81
2022-10-16T15:04:30.379Z,68.68
2022-10-16T15:07:33.716Z,68.72
2022-10-16T15:10:43.384Z,68.62
2022-10-16T15:13:47.173Z,68.49
2022-10-16T15:16:50.015Z,68.51
2022-10-16T15:19:52.938Z,68.46
2022-10-16T15:22:55.743Z,68.39
2022-10-16T15:25:58.703Z,68.45
2022-10-16T15:29:01.575Z,68.53
2022-10-16T15:32:04.637Z,68.57
2022-10-16T15:35:09.933Z,68.69
2022-10-16T15:38:14.785Z,68.75
2022-10-16T15:41:18.042Z,68.86
2022-10-16T15:44:24.020Z,68.91
2022-10-16T15:47:26.970Z,68.98
2022-10-16T15:50:31.319Z,69.06
2022-10-16T15:53:35.108Z,69.13
2022-10-16T15:56:38.360Z,69.19
2022-10-16T15:59:41.300Z,69.33
2022-10-16T16:02:50.272Z,69.43
2022-10-16T16:05:53.061Z,69.50
2022-10-16T16:08:56.809Z,69.55
2022-10-16T16:12:01.917Z,69.53
2022-10-16T16:15:06.279Z,69.57
2022-10-16T16:18:10.770Z,69.62
2022-10-16T16:21:14.290Z,69.67
2022-10-16T16:24:17.347Z,69.76
2022-10-16T16:27:20.991Z,69.80
2022-10-16T16:30:28.082Z,69.86
2022-10-16T16:33:32.500Z,69.90
2022-10-16T16:36:36.312Z,70.03
2022-10-16T16:39:39.366Z,70.07
2022-10-16T16:42:43.617Z,70.09
2022-10-16T16:45:46.654Z,70.12
2022-10-16T16:48:54.619Z,70.11
2022-10-16T16:51:58.556Z,70.11
2022-10-16T16:55:03.608Z,70.17
2022-10-16T16:58:06.626Z,70.17
2022-10-16T17:01:26.757Z,70.19
2022-10-16T17:04:30.632Z,70.19
2022-10-16T17:07:35.444Z,70.23
2022-10-16T17:10:44.498Z,70.28
2022-10-16T17:13:50.015Z,70.31
2022-10-16T17:16:55.573Z,70.36
2022-10-16T17:19:58.515Z,70.41
2022-10-16T17:23:02.970Z,70.46
2022-10-16T17:26:06.782Z,70.50
2022-10-16T17:29:12.350Z,70.57
2022-10-16T17:32:15.306Z,70.58
2022-10-16T17:35:18.215Z,70.66
2022-10-16T17:38:21.212Z,70.67
2022-10-16T17:41:24.911Z,70.68
2022-10-16T17:44:27.804Z,70.71
2022-10-16T17:47:30.644Z,70.72
2022-10-16T17:50:33.492Z,70.76
2022-10-16T17:53:37.425Z,70.78
2022-10-16T18:11:09.863Z,70.86
2022-10-16T18:14:15.059Z,70.87
2022-10-16T18:17:19.455Z,70.94
2022-10-16T18:20:22.813Z,70.95
2022-10-16T18:23:25.808Z,70.99
2022-10-16T18:26:29.089Z,71.06
2022-10-16T18:29:31.929Z,71.11
2022-10-16T18:32:34.807Z,71.15
2022-10-16T18:35:37.862Z,71.20
2022-10-16T18:38:41.444Z,71.22
2022-10-16T18:41:44.912Z,71.30
2022-10-16T18:44:50.389Z,71.32
2022-10-16T18:47:56.124Z,71.34
2022-10-16T18:51:09.825Z,71.37
2022-10-16T18:54:13.164Z,71.41
2022-10-16T18:57:15.964Z,71.43
2022-10-16T19:00:18.810Z,71.44
2022-10-16T19:03:21.745Z,71.46
2022-10-16T19:06:26.598Z,71.50
2022-10-16T19:09:29.492Z,71.52
2022-10-16T19:12:32.681Z,71.54
2022-10-16T19:15:42.803Z,71.55
2022-10-16T19:18:48.885Z,71.55
2022-10-16T19:21:58.132Z,71.60
2022-10-16T19:25:01.076Z,71.60
2022-10-16T19:28:07.587Z,71.62
2022-10-16T19:31:13.270Z,71.66
2022-10-16T19:34:16.404Z,71.65
2022-10-16T19:37:25.863Z,71.68
2022-10-16T19:40:29.257Z,71.71
2022-10-16T19:43:32.399Z,71.73
2022-10-16T19:46:36.197Z,71.74
2022-10-16T19:49:39.081Z,71.75
2022-10-16T19:52:42.407Z,71.74
2022-10-16T19:55:45.904Z,71.73
2022-10-16T19:58:49.602Z,71.75
2022-10-16T20:01:52.408Z,71.70
2022-10-16T20:04:55.344Z,71.66
2022-10-16T20:08:00.006Z,71.71
2022-10-16T20:11:04.225Z,71.66
2022-10-16T20:14:07.911Z,71.63
2022-10-16T20:17:11.060Z,71.62
2022-10-16T20:20:14.355Z,71.58
2022-10-16T20:23:18.625Z,71.56
2022-10-16T20:26:25.029Z,71.48
2022-10-16T20:29:28.276Z,71.44
2022-10-16T20:32:31.152Z,71.42
2022-10-16T20:35:42.479Z,71.39
2022-10-16T20:38:45.780Z,71.39
2022-10-16T20:41:48.661Z,71.36
2022-10-16T20:44:51.493Z,71.33
2022-10-16T20:47:54.392Z,71.21
2022-10-16T20:50:57.368Z,71.17
2022-10-16T20:54:03.065Z,71.10
2022-10-16T20:57:05.969Z,71.06
2022-10-16T21:00:09.233Z,71.08
2022-10-16T21:03:12.459Z,71.02
2022-10-16T21:06:15.289Z,71.00
2022-10-16T21:09:18.213Z,70.96
2022-10-16T21:12:21.080Z,70.94
2022-10-16T21:15:23.947Z,70.95
2022-10-16T21:18:27.607Z,70.99
2022-10-16T21:21:33.493Z,71.02
2022-10-16T21:24:37.903Z,71.05
2022-10-16T21:27:42.032Z,71.06
2022-10-16T21:30:45.192Z,71.05
2022-10-16T21:33:49.242Z,71.10
2022-10-16T21:36:52.068Z,71.16
2022-10-16T21:39:56.150Z,71.19
2022-10-16T21:42:59.044Z,71.25
2022-10-16T21:46:02.514Z,71.30
2022-10-16T21:49:07.710Z,71.30
2022-10-16T21:52:11.807Z,71.32
2022-10-16T21:55:14.773Z,71.36
2022-10-16T21:58:17.624Z,71.40
2022-10-16T22:01:23.906Z,71.39
2022-10-16T22:04:26.748Z,71.41
2022-10-16T22:07:30.142Z,71.41
2022-10-16T22:10:33.304Z,71.43
2022-10-16T22:13:36.860Z,71.44
2022-10-16T22:16:39.829Z,71.43
2022-10-16T22:19:42.629Z,71.41
2022-10-16T22:22:45.494Z,71.38
2022-10-16T22:25:48.501Z,71.37
2022-10-16T22:28:51.831Z,71.37
2022-10-16T22:31:54.758Z,71.37
2022-10-16T22:34:57.533Z,71.37
2022-10-16T22:38:00.373Z,71.36
2022-10-16T22:41:08.660Z,71.35
2022-10-16T22:44:13.264Z,71.32
2022-10-16T22:47:17.314Z,71.35
2022-10-16T22:50:20.135Z,71.36
2022-10-16T22:53:23.001Z,71.37
2022-10-16T22:56:26.427Z,71.32
2022-10-16T22:59:29.259Z,71.34
2022-10-16T23:02:32.168Z,71.33
2022-10-16T23:05:38.904Z,71.34
2022-10-16T23:08:42.236Z,71.33
2022-10-16T23:11:45.307Z,71.37
2022-10-16T23:14:48.326Z,71.37
2022-10-16T23:17:51.269Z,71.36
2022-10-16T23:20:54.089Z,71.37
2022-10-16T23:23:56.982Z,71.37
2022-10-16T23:26:59.812Z,71.41
2022-10-16T23:30:02.676Z,71.44
2022-10-16T23:33:05.536Z,71.42
2022-10-16T23:36:11.398Z,71.44
2022-10-16T23:39:14.319Z,71.45
2022-10-16T23:42:17.681Z,71.46
2022-10-16T23:45:20.469Z,71.49
2022-10-16T23:48:23.486Z,71.52
2022-10-16T23:51:26.440Z,71.56
2022-10-16T23:54:29.463Z,71.56
2022-10-16T23:57:32.293Z,71.55
